createdAt,value
2022-11-05T00:01:40.985Z,99727.50
2022-11-05T00:07:01.347Z,99741.41
2022-11-05T00:12:23.537Z,99745.00
2022-11-05T00:17:27.529Z,99750.06
2022-11-05T00:22:55.730Z,99755.63
2022-11-05T00:28:02.395Z,99756.94
2022-11-05T00:33:06.399Z,99765.28
2022-11-05T00:38:08.996Z,99762.84
2022-11-05T00:43:29.251Z,99768.09
2022-11-05T00:48:51.020Z,99781.50
2022-11-05T00:53:53.944Z,99775.75
2022-11-05T00:58:57.753Z,99784.59
2022-11-05T01:04:01.676Z,99796.06
2022-11-05T01:09:04.642Z,99793.94
2022-11-05T01:14:09.227Z,99798.09
2022-11-05T01:19:13.718Z,99807.13
2022-11-05T01:24:16.384Z,99802.84
2022-11-05T01:29:19.123Z,99813.47
2022-11-05T01:34:23.010Z,99813.84
2022-11-05T01:39:25.642Z,99828.59
2022-11-05T01:44:55.499Z,99833.19
2022-11-05T01:50:08.514Z,99831.84
2022-11-05T01:55:11.862Z,99837.75
2022-11-05T02:00:16.559Z,99842.84
2022-11-05T02:05:20.551Z,99851.69
2022-11-05T02:10:23.660Z,99859.56
2022-11-05T02:15:35.519Z,99862.81
2022-11-05T02:20:45.710Z,99866.41
2022-11-05T02:26:12.933Z,99863.59
2022-11-05T02:31:23.982Z,99866.38
2022-11-05T02:36:35.215Z,99881.47
2022-11-05T02:41:43.608Z,99877.47
2022-11-05T02:46:55.349Z,99884.56
2022-11-05T02:51:59.404Z,99881.13
2022-11-05T02:57:03.845Z,99881.44
2022-11-05T03:02:07.933Z,99882.13
2022-11-05T03:07:21.388Z,99890.31
2022-11-05T03:12:33.055Z,99899.38
2022-11-05T03:17:41.881Z,99903.66
2022-11-05T03:22:49.391Z,99905.44
2022-11-05T03:27:55.666Z,99913.31
2022-11-05T03:33:01.388Z,99921.56
2022-11-05T03:38:08.315Z,99930.88
2022-11-05T03:43:11.464Z,99944.69
2022-11-05T03:48:16.687Z,99951.66
2022-11-05T03:53:23.777Z,99950.63
2022-11-05T03:58:27.244Z,99956.97
2022-11-05T04:03:36.099Z,99967.75
2022-11-05T04:08:56.447Z,99972.03
2022-11-05T04:13:59.054Z,99979.09
2022-11-05T04:19:03.224Z,99971.75
2022-11-05T04:24:09.405Z,99986.97
2022-11-05T04:29:29.641Z,99978.03
2022-11-05T04:34:33.650Z,99990.47
2022-11-05T04:39:36.211Z,99980.66
2022-11-05T04:44:38.805Z,99981.56
2022-11-05T04:49:42.809Z,99993.53
2022-11-05T04:54:45.370Z,99989.34
2022-11-05T04:59:49.170Z,99986.72
2022-11-05T05:04:53.516Z,99990.41
2022-11-05T05:09:56.303Z,99995.34
2022-11-05T05:14:58.893Z,100007.84
2022-11-05T05:20:20.568Z,100016.06
2022-11-05T05:25:23.603Z,100023.38
2022-11-05T05:30:26.398Z,100020.59
2022-11-05T05:35:30.439Z,100036.72
2022-11-05T05:40:33.032Z,100041.16
2022-11-05T05:45:36.077Z,100047.03
2022-11-05T05:50:40.125Z,100061.50
2022-11-05T05:55:42.946Z,100067.72
2022-11-05T06:00:45.525Z,100074.81
2022-11-05T06:05:49.743Z,100078.28
2022-11-05T06:10:55.003Z,100083.25
2022-11-05T06:16:01.204Z,100098.44
2022-11-05T06:21:06.553Z,100098.97
2022-11-05T06:26:10.800Z,100101.81
2022-11-05T06:31:14.772Z,100106.66
2022-11-05T06:36:20.237Z,100130.34
2022-11-05T06:41:22.881Z,100138.38
2022-11-05T06:46:25.430Z,100149.53
2022-11-05T06:51:30.225Z,100159.16
2022-11-05T06:56:32.888Z,100169.47
2022-11-05T07:01:35.627Z,100171.25
2022-11-05T07:06:39.601Z,100174.38
2022-11-05T07:11:42.226Z,100182.97
2022-11-05T07:16:44.993Z,100197.03
2022-11-05T07:21:50.801Z,100193.25
2022-11-05T07:26:53.716Z,100204.13
2022-11-05T07:31:56.311Z,100202.09
2022-11-05T07:37:00.299Z,100212.44
2022-11-05T07:42:04.596Z,100217.50
2022-11-05T07:47:09.494Z,100233.78
2022-11-05T07:52:15.963Z,100228.66
2022-11-05T07:57:18.522Z,100238.16
2022-11-05T08:02:23.989Z,100249.00
2022-11-05T08:07:29.140Z,100257.44
2022-11-05T08:12:32.326Z,100268.28
2022-11-05T08:17:35.627Z,100260.38
2022-11-05T08:22:42.979Z,100259.28
2022-11-05T08:27:45.732Z,100271.28
2022-11-05T08:32:48.477Z,100272.22
2022-11-05T08:37:52.472Z,100278.22
2022-11-05T08:42:57.977Z,100278.09
2022-11-05T08:48:01.350Z,100274.19
2022-11-05T08:53:06.026Z,100275.72
2022-11-05T08:58:12.403Z,100279.72
2022-11-05T09:03:15.882Z,100282.00
2022-11-05T09:08:20.055Z,100292.47
2022-11-05T09:13:23.120Z,100292.56
2022-11-05T09:18:25.970Z,100306.16
2022-11-05T09:23:36.283Z,100306.97
2022-11-05T09:28:38.959Z,100302.50
2022-11-05T09:33:43.049Z,100319.88
2022-11-05T09:38:46.974Z,100318.31
2022-11-05T09:43:52.683Z,100325.66
2022-11-05T09:49:05.468Z,100330.56
2022-11-05T09:54:11.546Z,100331.75
2022-11-05T09:59:17.906Z,100333.91
2022-11-05T10:04:23.512Z,100331.91
2022-11-05T10:09:29.226Z,100338.06
2022-11-05T10:14:34.934Z,100319.50
2022-11-05T10:19:43.867Z,100337.88
2022-11-05T10:24:49.206Z,100343.03
2022-11-05T10:29:52.652Z,100346.06
2022-11-05T10:34:57.290Z,100341.28
2022-11-05T10:40:01.834Z,100346.56
2022-11-05T10:45:13.700Z,100347.00
2022-11-05T10:50:18.976Z,100358.56
2022-11-05T10:55:25.534Z,100353.47
2022-11-05T11:00:29.258Z,100357.59
2022-11-05T11:05:34.090Z,100360.66
2022-11-05T11:10:42.768Z,100369.22
2022-11-05T11:15:45.422Z,100354.38
2022-11-05T11:20:53.201Z,100367.38
2022-11-05T11:26:01.662Z,100361.84
2022-11-05T11:31:06.346Z,100369.28
2022-11-05T11:36:10.961Z,100372.59
2022-11-05T11:41:25.256Z,100373.25
2022-11-05T11:46:32.283Z,100367.69
2022-11-05T11:51:40.451Z,100363.25
2022-11-05T11:56:46.382Z,100365.44
2022-11-05T12:02:07.930Z,100356.63
2022-11-05T12:07:20.119Z,100349.97
2022-11-05T12:12:30.068Z,100352.06
2022-11-05T12:17:42.481Z,100356.25
2022-11-05T12:23:01.681Z,100355.09
2022-11-05T12:28:23.206Z,100350.00
2022-11-05T12:33:36.401Z,100353.03
2022-11-05T12:38:58.450Z,100351.00
2022-11-05T12:44:24.359Z,100349.28
2022-11-05T12:49:40.753Z,100353.69
2022-11-05T12:54:59.508Z,100354.97
2022-11-05T13:00:08.559Z,100349.25
2022-11-05T13:05:15.200Z,100363.00
2022-11-05T13:10:24.623Z,100367.56
2022-11-05T13:15:30.719Z,100366.41
2022-11-05T13:20:39.720Z,100371.00
2022-11-05T13:25:47.611Z,100371.63
2022-11-05T13:30:53.938Z,100367.50
2022-11-05T13:36:13.523Z,100369.91
2022-11-05T13:41:28.215Z,100379.09
2022-11-05T13:47:00.728Z,100386.00
2022-11-05T13:52:22.672Z,100375.91
2022-11-05T13:57:45.120Z,100379.22
2022-11-05T14:02:52.160Z,100392.56
2022-11-05T14:07:55.218Z,100387.28
2022-11-05T14:12:59.970Z,100394.22
2022-11-05T14:18:05.441Z,100381.06
2022-11-05T14:23:48.374Z,100384.81
2022-11-05T14:29:10.829Z,100396.47
2022-11-05T14:34:24.907Z,100388.38
2022-11-05T14:39:29.832Z,100392.78
2022-11-05T14:44:35.871Z,100401.72
2022-11-05T14:49:49.708Z,100405.81
2022-11-05T14:54:55.142Z,100406.41
2022-11-05T15:00:00.778Z,100412.16
2022-11-05T15:05:37.664Z,100412.78
2022-11-05T15:10:40.320Z,100411.94
2022-11-05T15:15:45.243Z,100406.16
2022-11-05T15:20:50.932Z,100415.94
2022-11-05T15:26:02.060Z,100409.75
2022-11-05T15:31:07.498Z,100406.69
2022-11-05T15:36:29.535Z,100412.13
2022-11-05T15:41:34.588Z,100417.56
2022-11-05T15:46:37.362Z,100429.03
2022-11-05T15:51:53.420Z,100425.75
2022-11-05T15:56:58.043Z,100437.84
2022-11-05T16:02:06.976Z,100436.63
2022-11-05T16:07:12.813Z,100440.00
2022-11-05T16:12:24.930Z,100440.06
2022-11-05T16:17:29.320Z,100449.34
2022-11-05T16:22:51.157Z,100449.78
2022-11-05T16:27:53.873Z,100452.78
2022-11-05T16:33:04.166Z,100456.53
2022-11-05T16:38:08.189Z,100460.47
2022-11-05T16:43:19.021Z,100460.22
2022-11-05T16:48:21.700Z,100467.69
2022-11-05T16:53:25.936Z,100477.66
2022-11-05T16:58:28.545Z,100481.69
2022-11-05T17:03:31.596Z,100481.38
2022-11-05T17:08:35.679Z,100489.69
2022-11-05T17:13:38.271Z,100491.88
2022-11-05T17:18:41.981Z,100497.00
2022-11-05T17:23:46.291Z,100496.47
2022-11-05T17:28:48.918Z,100507.78
2022-11-05T17:33:51.481Z,100508.06
2022-11-05T17:38:55.716Z,100526.44
2022-11-05T17:43:58.644Z,100530.13
2022-11-05T17:49:01.335Z,100525.59
2022-11-05T17:54:05.377Z,100526.13
2022-11-05T17:59:08.054Z,100535.09
2022-11-05T18:04:10.934Z,100540.47
2022-11-05T18:09:17.506Z,100540.56
2022-11-05T18:14:24.026Z,100541.53
2022-11-05T18:19:27.630Z,100540.59
2022-11-05T18:24:32.249Z,100540.25
2022-11-05T18:29:37.959Z,100541.38
2022-11-05T18:34:40.752Z,100534.47
2022-11-05T18:39:45.027Z,100540.94
2022-11-05T18:44:48.177Z,100537.72
2022-11-05T18:49:50.843Z,100534.00
2022-11-05T18:54:54.832Z,100544.72
2022-11-05T18:59:57.417Z,100550.22
2022-11-05T19:05:27.588Z,100543.28
2022-11-05T19:10:23.967Z,100547.06
2022-11-05T19:15:26.577Z,100546.59
2022-11-05T19:20:33.660Z,100544.69
2022-11-05T19:25:40.680Z,100546.34
2022-11-05T19:30:43.420Z,100551.84
2022-11-05T19:35:46.254Z,100566.59
2022-11-05T19:40:50.225Z,100563.53
2022-11-05T19:45:52.825Z,100564.63
2022-11-05T19:51:00.804Z,100563.41
2022-11-05T19:56:07.288Z,100561.31
2022-11-05T20:01:10.465Z,100556.63
2022-11-05T20:06:15.600Z,100558.44
2022-11-05T20:11:19.882Z,100557.41
2022-11-05T20:16:23.444Z,100565.66
2022-11-05T20:21:26.136Z,100562.63
2022-11-05T20:26:30.390Z,100570.22
2022-11-05T20:31:33.352Z,100578.94
2022-11-05T20:36:35.984Z,100572.75
2022-11-05T20:41:40.085Z,100572.84
2022-11-05T20:46:42.764Z,100572.34
2022-11-05T20:51:45.368Z,100584.38
2022-11-05T20:56:49.479Z,100589.44
2022-11-05T21:01:53.168Z,100591.94
2022-11-05T21:06:55.832Z,100598.97
2022-11-05T21:12:11.742Z,100595.78
2022-11-05T21:17:14.961Z,100585.56
2022-11-05T21:22:17.596Z,100587.34
2022-11-05T21:27:21.507Z,100586.63
2022-11-05T21:32:24.179Z,100585.13
2022-11-05T21:37:26.980Z,100586.31
2022-11-05T21:42:31.255Z,100581.41
2022-11-05T21:47:33.901Z,100585.69
2022-11-05T21:52:53.963Z,100582.03
2022-11-05T21:58:21.600Z,100576.78
2022-11-05T22:03:24.287Z,100574.41
2022-11-05T22:08:27.234Z,100580.91
2022-11-05T22:13:34.450Z,100582.97
2022-11-05T22:18:37.037Z,100593.16
2022-11-05T22:23:39.646Z,100590.28
2022-11-05T22:28:43.555Z,100584.78
2022-11-05T22:33:46.155Z,100583.53
2022-11-05T22:38:48.982Z,100586.38
2022-11-05T22:43:53.060Z,100590.34
2022-11-05T22:48:56.119Z,100587.41
2022-11-05T22:53:58.971Z,100588.13
2022-11-05T22:59:03.244Z,100594.16
2022-11-05T23:04:05.933Z,100585.03
2022-11-05T23:09:31.360Z,100581.22
2022-11-05T23:14:41.641Z,100578.63
2022-11-05T23:20:02.067Z,100572.78
2022-11-05T23:25:05.596Z,100567.25
2022-11-05T23:30:12.616Z,100570.25
2022-11-05T23:35:15.774Z,100570.47
2022-11-05T23:40:20.697Z,100578.59
2022-11-05T23:45:50.776Z,100581.78
2022-11-05T23:50:58.828Z,100575.84
2022-11-05T23:56:02.869Z,100572.53
